sensor_id;sensor_type;location;lat;lon;timestamp;P1;durP1;ratioP1;P2;durP2;ratioP2
419;SDS011;42600;54.408;13.016;2023-03-01T00:00:15;4.90;;;2.33;;
419;SDS011;42600;54.408;13.016;2023-03-01T00:02:42;2.80;;;1.80;;
419;SDS011;42600;54.408;13.016;2023-03-01T00:05:08;1.77;;;1.33;;
419;SDS011;42600;54.408;13.016;2023-03-01T00:07:35;8.73;;;2.80;;
419;SDS011;42600;54.408;13.016;2023-03-01T00:10:03;5.50;;;3.20;;
419;SDS011;42600;54.408;13.016;2023-03-01T00:12:32;8.13;;;1.70;;
419;SDS011;42600;54.408;13.016;2023-03-01T00:14:58;4.20;;;2.30;;
419;SDS011;42600;54.408;13.016;2023-03-01T00:17:26;3.70;;;2.17;;
419;SDS011;42600;54.408;13.016;2023-03-01T00:19:53;20.83;;;2.97;;
419;SDS011;42600;54.408;13.016;2023-03-01T00:22:20;2.43;;;1.77;;
419;SDS011;42600;54.408;13.016;2023-03-01T00:24:47;5.67;;;2.60;;
419;SDS011;42600;54.408;13.016;2023-03-01T00:27:14;4.30;;;2.87;;
419;SDS011;42600;54.408;13.016;2023-03-01T00:29:41;12.00;;;1.43;;
419;SDS011;42600;54.408;13.016;2023-03-01T00:32:08;15.47;;;2.80;;
419;SDS011;42600;54.408;13.016;2023-03-01T00:34:34;3.03;;;2.23;;
419;SDS011;42600;54.408;13.016;2023-03-01T00:37:01;3.03;;;1.97;;
419;SDS011;42600;54.408;13.016;2023-03-01T00:39:30;3.67;;;2.20;;
419;SDS011;42600;54.408;13.016;2023-03-01T00:41:57;4.43;;;1.80;;
419;SDS011;42600;54.408;13.016;2023-03-01T00:44:25;2.37;;;1.20;;
419;SDS011;42600;54.408;13.016;2023-03-01T00:46:53;2.50;;;1.10;;
419;SDS011;42600;54.408;13.016;2023-03-01T00:49:19;6.43;;;2.40;;
419;SDS011;42600;54.408;13.016;2023-03-01T00:51:46;7.17;;;2.07;;
419;SDS011;42600;54.408;13.016;2023-03-01T00:54:12;6.20;;;2.43;;
419;SDS011;42600;54.408;13.016;2023-03-01T00:56:39;3.23;;;1.90;;
419;SDS011;42600;54.408;13.016;2023-03-01T00:59:06;10.40;;;2.97;;
419;SDS011;42600;54.408;13.016;2023-03-01T01:01:33;10.57;;;2.53;;
419;SDS011;42600;54.408;13.016;2023-03-01T01:04:01;6.43;;;3.40;;
419;SDS011;42600;54.408;13.016;2023-03-01T01:06:30;8.33;;;2.90;;
419;SDS011;42600;54.408;13.016;2023-03-01T01:08:57;7.40;;;2.00;;
419;SDS011;42600;54.408;13.016;2023-03-01T01:11:26;4.17;;;2.87;;
419;SDS011;42600;54.408;13.016;2023-03-01T01:13:53;4.43;;;2.43;;
419;SDS011;42600;54.408;13.016;2023-03-01T01:16:22;2.33;;;1.53;;
419;SDS011;42600;54.408;13.016;2023-03-01T01:18:52;4.70;;;2.37;;
419;SDS011;42600;54.408;13.016;2023-03-01T01:21:20;7.53;;;2.90;;
419;SDS011;42600;54.408;13.016;2023-03-01T01:23:49;4.47;;;2.47;;
419;SDS011;42600;54.408;13.016;2023-03-01T01:26:17;7.80;;;2.73;;
419;SDS011;42600;54.408;13.016;2023-03-01T01:28:45;10.37;;;3.20;;
419;SDS011;42600;54.408;13.016;2023-03-01T01:31:12;5.97;;;2.13;;
419;SDS011;42600;54.408;13.016;2023-03-01T01:33:38;3.43;;;2.47;;
419;SDS011;42600;54.408;13.016;2023-03-01T01:36:07;4.27;;;2.83;;
419;SDS011;42600;54.408;13.016;2023-03-01T01:38:34;5.63;;;2.57;;
419;SDS011;42600;54.408;13.016;2023-03-01T01:41:02;5.10;;;2.53;;
419;SDS011;42600;54.408;13.016;2023-03-01T01:43:30;3.87;;;2.07;;
419;SDS011;42600;54.408;13.016;2023-03-01T01:45:59;4.13;;;3.13;;
419;SDS011;42600;54.408;13.016;2023-03-01T01:48:32;11.20;;;3.20;;
419;SDS011;42600;54.408;13.016;2023-03-01T01:51:08;6.83;;;2.60;;
419;SDS011;42600;54.408;13.016;2023-03-01T01:53:37;3.17;;;1.37;;
419;SDS011;42600;54.408;13.016;2023-03-01T01:56:05;5.60;;;1.63;;
419;SDS011;42600;54.408;13.016;2023-03-01T01:58:35;3.97;;;2.50;;
419;SDS011;42600;54.408;13.016;2023-03-01T02:01:02;8.43;;;2.40;;
419;SDS011;42600;54.408;13.016;2023-03-01T02:03:30;12.63;;;4.30;;
419;SDS011;42600;54.408;13.016;2023-03-01T02:06:03;5.30;;;3.03;;
419;SDS011;42600;54.408;13.016;2023-03-01T02:08:38;6.67;;;1.87;;
419;SDS011;42600;54.408;13.016;2023-03-01T02:11:07;3.60;;;2.30;;
419;SDS011;42600;54.408;13.016;2023-03-01T02:13:34;5.40;;;2.87;;
419;SDS011;42600;54.408;13.016;2023-03-01T02:16:02;10.93;;;4.20;;
419;SDS011;42600;54.408;13.016;2023-03-01T02:18:29;5.07;;;2.60;;
419;SDS011;42600;54.408;13.016;2023-03-01T02:21:00;4.20;;;1.90;;
419;SDS011;42600;54.408;13.016;2023-03-01T02:23:34;4.67;;;3.60;;
419;SDS011;42600;54.408;13.016;2023-03-01T02:26:03;4.20;;;1.97;;
419;SDS011;42600;54.408;13.016;2023-03-01T02:28:37;8.30;;;3.13;;
419;SDS011;42600;54.408;13.016;2023-03-01T02:31:06;2.93;;;1.50;;
419;SDS011;42600;54.408;13.016;2023-03-01T02:33:53;9.90;;;2.87;;
419;SDS011;42600;54.408;13.016;2023-03-01T02:36:21;6.63;;;3.00;;
419;SDS011;42600;54.408;13.016;2023-03-01T02:38:51;5.47;;;3.07;;
419;SDS011;42600;54.408;13.016;2023-03-01T02:41:22;10.37;;;2.93;;
419;SDS011;42600;54.408;13.016;2023-03-01T02:43:51;5.80;;;2.27;;
419;SDS011;42600;54.408;13.016;2023-03-01T02:46:18;11.03;;;3.07;;
419;SDS011;42600;54.408;13.016;2023-03-01T02:48:47;5.10;;;2.93;;
419;SDS011;42600;54.408;13.016;2023-03-01T02:51:26;7.03;;;2.40;;
419;SDS011;42600;54.408;13.016;2023-03-01T02:54:13;6.03;;;2.77;;
419;SDS011;42600;54.408;13.016;2023-03-01T02:56:45;2.97;;;0.90;;
419;SDS011;42600;54.408;13.016;2023-03-01T02:59:15;5.13;;;2.40;;
419;SDS011;42600;54.408;13.016;2023-03-01T03:01:44;6.27;;;1.97;;
419;SDS011;42600;54.408;13.016;2023-03-01T03:04:13;3.00;;;2.20;;
419;SDS011;42600;54.408;13.016;2023-03-01T03:06:42;4.40;;;2.30;;
419;SDS011;42600;54.408;13.016;2023-03-01T03:09:08;2.27;;;1.87;;
419;SDS011;42600;54.408;13.016;2023-03-01T03:11:35;6.10;;;2.70;;
419;SDS011;42600;54.408;13.016;2023-03-01T03:14:04;5.20;;;2.47;;
419;SDS011;42600;54.408;13.016;2023-03-01T03:16:32;5.53;;;3.50;;
419;SDS011;42600;54.408;13.016;2023-03-01T03:18:58;7.73;;;3.17;;
419;SDS011;42600;54.408;13.016;2023-03-01T03:21:29;3.80;;;1.40;;
419;SDS011;42600;54.408;13.016;2023-03-01T03:23:56;2.50;;;1.93;;
419;SDS011;42600;54.408;13.016;2023-03-01T03:26:23;6.30;;;2.60;;
419;SDS011;42600;54.408;13.016;2023-03-01T03:28:50;3.00;;;1.20;;
419;SDS011;42600;54.408;13.016;2023-03-01T03:31:17;1.87;;;1.00;;
419;SDS011;42600;54.408;13.016;2023-03-01T03:33:45;2.47;;;1.50;;
419;SDS011;42600;54.408;13.016;2023-03-01T03:36:14;5.07;;;1.70;;
419;SDS011;42600;54.408;13.016;2023-03-01T03:38:42;4.73;;;1.30;;
419;SDS011;42600;54.408;13.016;2023-03-01T03:41:10;3.63;;;1.80;;
419;SDS011;42600;54.408;13.016;2023-03-01T03:43:38;4.73;;;2.20;;
419;SDS011;42600;54.408;13.016;2023-03-01T03:46:07;6.73;;;1.80;;
419;SDS011;42600;54.408;13.016;2023-03-01T03:48:35;6.83;;;2.77;;
419;SDS011;42600;54.408;13.016;2023-03-01T03:51:04;1.90;;;1.07;;
419;SDS011;42600;54.408;13.016;2023-03-01T03:53:32;3.50;;;1.30;;
419;SDS011;42600;54.408;13.016;2023-03-01T03:55:59;3.20;;;1.70;;
419;SDS011;42600;54.408;13.016;2023-03-01T03:58:25;5.57;;;1.60;;
419;SDS011;42600;54.408;13.016;2023-03-01T04:00:53;2.20;;;1.03;;
419;SDS011;42600;54.408;13.016;2023-03-01T04:03:21;7.03;;;1.83;;
419;SDS011;42600;54.408;13.016;2023-03-01T04:05:49;4.03;;;1.70;;
419;SDS011;42600;54.408;13.016;2023-03-01T04:08:18;3.57;;;1.63;;
419;SDS011;42600;54.408;13.016;2023-03-01T04:10:46;3.57;;;1.83;;
419;SDS011;42600;54.408;13.016;2023-03-01T04:13:17;5.67;;;2.63;;
419;SDS011;42600;54.408;13.016;2023-03-01T04:15:45;7.23;;;2.57;;
419;SDS011;42600;54.408;13.016;2023-03-01T04:18:12;5.37;;;2.07;;
419;SDS011;42600;54.408;13.016;2023-03-01T04:20:40;4.63;;;1.77;;
419;SDS011;42600;54.408;13.016;2023-03-01T04:23:08;3.73;;;1.57;;
419;SDS011;42600;54.408;13.016;2023-03-01T04:25:40;3.13;;;1.60;;
419;SDS011;42600;54.408;13.016;2023-03-01T04:28:07;6.60;;;3.03;;
419;SDS011;42600;54.408;13.016;2023-03-01T04:30:34;3.23;;;1.60;;
419;SDS011;42600;54.408;13.016;2023-03-01T04:33:02;2.70;;;1.77;;
419;SDS011;42600;54.408;13.016;2023-03-01T04:35:29;4.67;;;1.90;;
419;SDS011;42600;54.408;13.016;2023-03-01T04:37:56;5.00;;;1.93;;
419;SDS011;42600;54.408;13.016;2023-03-01T04:40:23;2.50;;;1.87;;
419;SDS011;42600;54.408;13.016;2023-03-01T04:42:51;9.20;;;2.00;;
419;SDS011;42600;54.408;13.016;2023-03-01T04:45:17;2.87;;;1.40;;
419;SDS011;42600;54.408;13.016;2023-03-01T04:47:45;5.67;;;2.03;;
419;SDS011;42600;54.408;13.016;2023-03-01T04:50:13;6.40;;;2.83;;
419;SDS011;42600;54.408;13.016;2023-03-01T04:52:41;3.17;;;2.70;;
419;SDS011;42600;54.408;13.016;2023-03-01T04:55:09;5.53;;;2.40;;
419;SDS011;42600;54.408;13.016;2023-03-01T04:57:36;6.10;;;2.07;;
419;SDS011;42600;54.408;13.016;2023-03-01T05:00:05;2.73;;;2.23;;
419;SDS011;42600;54.408;13.016;2023-03-01T05:02:45;2.80;;;2.00;;
419;SDS011;42600;54.408;13.016;2023-03-01T05:05:18;5.87;;;2.70;;
419;SDS011;42600;54.408;13.016;2023-03-01T05:07:50;2.73;;;1.77;;
419;SDS011;42600;54.408;13.016;2023-03-01T05:10:17;1.30;;;0.80;;
419;SDS011;42600;54.408;13.016;2023-03-01T05:12:43;3.83;;;1.87;;
419;SDS011;42600;54.408;13.016;2023-03-01T05:15:12;7.70;;;3.33;;
419;SDS011;42600;54.408;13.016;2023-03-01T05:17:39;7.33;;;2.53;;
419;SDS011;42600;54.408;13.016;2023-03-01T05:20:07;2.67;;;1.27;;
419;SDS011;42600;54.408;13.016;2023-03-01T05:22:35;4.10;;;1.80;;
419;SDS011;42600;54.408;13.016;2023-03-01T05:25:02;4.70;;;2.60;;
419;SDS011;42600;54.408;13.016;2023-03-01T05:27:29;4.67;;;2.30;;
419;SDS011;42600;54.408;13.016;2023-03-01T05:29:56;5.03;;;2.33;;
419;SDS011;42600;54.408;13.016;2023-03-01T05:32:24;6.47;;;2.10;;
419;SDS011;42600;54.408;13.016;2023-03-01T05:34:50;3.60;;;1.43;;
419;SDS011;42600;54.408;13.016;2023-03-01T05:37:20;14.17;;;2.40;;
419;SDS011;42600;54.408;13.016;2023-03-01T05:39:46;2.40;;;1.40;;
419;SDS011;42600;54.408;13.016;2023-03-01T05:42:15;7.90;;;2.70;;
419;SDS011;42600;54.408;13.016;2023-03-01T05:44:41;5.43;;;2.23;;
419;SDS011;42600;54.408;13.016;2023-03-01T05:47:08;3.10;;;2.20;;
419;SDS011;42600;54.408;13.016;2023-03-01T05:49:36;3.73;;;1.50;;
419;SDS011;42600;54.408;13.016;2023-03-01T05:52:02;4.33;;;2.43;;
419;SDS011;42600;54.408;13.016;2023-03-01T05:54:29;3.57;;;2.03;;
419;SDS011;42600;54.408;13.016;2023-03-01T05:56:56;22.03;;;3.50;;
419;SDS011;42600;54.408;13.016;2023-03-01T05:59:22;7.20;;;1.70;;
419;SDS011;42600;54.408;13.016;2023-03-01T06:01:49;5.27;;;2.07;;
419;SDS011;42600;54.408;13.016;2023-03-01T06:04:15;3.00;;;1.33;;
419;SDS011;42600;54.408;13.016;2023-03-01T06:06:43;2.13;;;1.80;;
419;SDS011;42600;54.408;13.016;2023-03-01T06:09:10;6.30;;;5.53;;
419;SDS011;42600;54.408;13.016;2023-03-01T06:11:36;6.00;;;3.03;;
419;SDS011;42600;54.408;13.016;2023-03-01T06:14:03;3.73;;;2.00;;
419;SDS011;42600;54.408;13.016;2023-03-01T06:16:32;12.67;;;4.27;;
419;SDS011;42600;54.408;13.016;2023-03-01T06:18:59;10.10;;;2.33;;
419;SDS011;42600;54.408;13.016;2023-03-01T06:21:25;6.97;;;3.47;;
419;SDS011;42600;54.408;13.016;2023-03-01T06:23:53;7.90;;;2.73;;
419;SDS011;42600;54.408;13.016;2023-03-01T06:26:20;13.93;;;4.23;;
419;SDS011;42600;54.408;13.016;2023-03-01T06:28:46;12.33;;;2.67;;
419;SDS011;42600;54.408;13.016;2023-03-01T06:31:13;8.23;;;3.23;;
419;SDS011;42600;54.408;13.016;2023-03-01T06:33:39;10.23;;;5.00;;
419;SDS011;42600;54.408;13.016;2023-03-01T06:36:07;18.50;;;5.83;;
419;SDS011;42600;54.408;13.016;2023-03-01T06:38:34;23.87;;;7.47;;
419;SDS011;42600;54.408;13.016;2023-03-01T06:41:03;17.03;;;4.27;;
419;SDS011;42600;54.408;13.016;2023-03-01T06:43:29;12.57;;;5.47;;
419;SDS011;42600;54.408;13.016;2023-03-01T06:45:56;18.40;;;3.90;;
419;SDS011;42600;54.408;13.016;2023-03-01T06:48:23;16.77;;;3.23;;
419;SDS011;42600;54.408;13.016;2023-03-01T06:50:49;31.33;;;7.70;;
419;SDS011;42600;54.408;13.016;2023-03-01T06:53:16;14.10;;;4.73;;
419;SDS011;42600;54.408;13.016;2023-03-01T06:55:42;18.00;;;7.53;;
419;SDS011;42600;54.408;13.016;2023-03-01T06:58:10;20.13;;;5.53;;
419;SDS011;42600;54.408;13.016;2023-03-01T07:00:37;29.23;;;7.90;;
419;SDS011;42600;54.408;13.016;2023-03-01T07:03:05;12.87;;;5.07;;
419;SDS011;42600;54.408;13.016;2023-03-01T07:05:32;16.87;;;5.10;;
419;SDS011;42600;54.408;13.016;2023-03-01T07:07:59;8.30;;;3.63;;
419;SDS011;42600;54.408;13.016;2023-03-01T07:10:26;15.33;;;4.10;;
419;SDS011;42600;54.408;13.016;2023-03-01T07:12:54;10.40;;;4.37;;
419;SDS011;42600;54.408;13.016;2023-03-01T07:15:22;13.33;;;4.70;;
419;SDS011;42600;54.408;13.016;2023-03-01T07:17:49;16.60;;;4.53;;
419;SDS011;42600;54.408;13.016;2023-03-01T07:20:16;10.00;;;5.03;;
419;SDS011;42600;54.408;13.016;2023-03-01T07:22:43;22.70;;;6.27;;
419;SDS011;42600;54.408;13.016;2023-03-01T07:25:10;17.93;;;6.00;;
419;SDS011;42600;54.408;13.016;2023-03-01T07:27:37;13.40;;;5.03;;
419;SDS011;42600;54.408;13.016;2023-03-01T07:30:04;13.00;;;5.47;;
419;SDS011;42600;54.408;13.016;2023-03-01T07:32:33;26.50;;;3.67;;
419;SDS011;42600;54.408;13.016;2023-03-01T07:34:59;26.47;;;6.87;;
419;SDS011;42600;54.408;13.016;2023-03-01T07:37:26;19.60;;;5.47;;
419;SDS011;42600;54.408;13.016;2023-03-01T07:39:52;10.93;;;4.20;;
419;SDS011;42600;54.408;13.016;2023-03-01T07:42:19;23.23;;;6.47;;
419;SDS011;42600;54.408;13.016;2023-03-01T07:44:45;20.53;;;5.60;;
419;SDS011;42600;54.408;13.016;2023-03-01T07:47:12;15.90;;;5.87;;
419;SDS011;42600;54.408;13.016;2023-03-01T07:49:40;8.53;;;5.00;;
419;SDS011;42600;54.408;13.016;2023-03-01T07:52:06;20.57;;;5.80;;
419;SDS011;42600;54.408;13.016;2023-03-01T07:54:35;26.30;;;7.40;;
419;SDS011;42600;54.408;13.016;2023-03-01T07:57:02;16.17;;;3.83;;
419;SDS011;42600;54.408;13.016;2023-03-01T07:59:29;15.50;;;4.33;;
419;SDS011;42600;54.408;13.016;2023-03-01T08:01:56;15.73;;;5.10;;
419;SDS011;42600;54.408;13.016;2023-03-01T08:04:23;16.07;;;6.00;;
419;SDS011;42600;54.408;13.016;2023-03-01T08:06:52;16.77;;;5.77;;
419;SDS011;42600;54.408;13.016;2023-03-01T08:09:19;16.80;;;7.93;;
419;SDS011;42600;54.408;13.016;2023-03-01T08:11:46;25.23;;;6.70;;
419;SDS011;42600;54.408;13.016;2023-03-01T08:14:13;17.37;;;5.80;;
419;SDS011;42600;54.408;13.016;2023-03-01T08:16:39;26.53;;;7.47;;
419;SDS011;42600;54.408;13.016;2023-03-01T08:19:06;23.30;;;6.17;;
419;SDS011;42600;54.408;13.016;2023-03-01T08:21:33;16.03;;;5.63;;
419;SDS011;42600;54.408;13.016;2023-03-01T08:24:02;17.97;;;5.77;;
419;SDS011;42600;54.408;13.016;2023-03-01T08:26:29;15.57;;;5.43;;
419;SDS011;42600;54.408;13.016;2023-03-01T08:28:56;30.43;;;6.63;;
419;SDS011;42600;54.408;13.016;2023-03-01T08:31:23;28.93;;;9.60;;
419;SDS011;42600;54.408;13.016;2023-03-01T08:33:52;25.63;;;5.90;;
419;SDS011;42600;54.408;13.016;2023-03-01T08:36:21;29.33;;;7.80;;
419;SDS011;42600;54.408;13.016;2023-03-01T08:38:47;17.50;;;7.27;;
419;SDS011;42600;54.408;13.016;2023-03-01T08:41:16;35.57;;;8.03;;
419;SDS011;42600;54.408;13.016;2023-03-01T08:43:43;20.97;;;8.13;;
419;SDS011;42600;54.408;13.016;2023-03-01T08:46:10;21.63;;;8.63;;
419;SDS011;42600;54.408;13.016;2023-03-01T08:48:37;21.90;;;5.43;;
419;SDS011;42600;54.408;13.016;2023-03-01T08:51:07;23.50;;;6.13;;
419;SDS011;42600;54.408;13.016;2023-03-01T08:53:37;21.50;;;6.47;;
419;SDS011;42600;54.408;13.016;2023-03-01T08:56:04;17.40;;;5.50;;
419;SDS011;42600;54.408;13.016;2023-03-01T08:58:32;16.80;;;6.83;;
419;SDS011;42600;54.408;13.016;2023-03-01T09:00:58;10.77;;;5.03;;
419;SDS011;42600;54.408;13.016;2023-03-01T09:03:26;21.50;;;7.07;;
419;SDS011;42600;54.408;13.016;2023-03-01T09:05:53;27.47;;;7.50;;
419;SDS011;42600;54.408;13.016;2023-03-01T09:08:26;20.63;;;6.73;;
419;SDS011;42600;54.408;13.016;2023-03-01T09:10:53;14.33;;;6.23;;
419;SDS011;42600;54.408;13.016;2023-03-01T09:13:19;17.17;;;8.40;;
419;SDS011;42600;54.408;13.016;2023-03-01T09:15:50;20.57;;;6.57;;
419;SDS011;42600;54.408;13.016;2023-03-01T09:18:17;25.70;;;6.80;;
419;SDS011;42600;54.408;13.016;2023-03-01T09:20:44;15.07;;;5.60;;
419;SDS011;42600;54.408;13.016;2023-03-01T09:23:10;22.13;;;6.57;;
419;SDS011;42600;54.408;13.016;2023-03-01T09:25:37;18.67;;;5.57;;
419;SDS011;42600;54.408;13.016;2023-03-01T09:28:03;16.60;;;6.73;;
419;SDS011;42600;54.408;13.016;2023-03-01T09:30:30;19.73;;;7.47;;
419;SDS011;42600;54.408;13.016;2023-03-01T09:32:58;17.43;;;5.50;;
419;SDS011;42600;54.408;13.016;2023-03-01T09:35:24;20.47;;;5.80;;
419;SDS011;42600;54.408;13.016;2023-03-01T09:37:51;17.83;;;5.67;;
419;SDS011;42600;54.408;13.016;2023-03-01T09:40:18;20.13;;;4.57;;
419;SDS011;42600;54.408;13.016;2023-03-01T09:42:49;22.83;;;6.10;;
419;SDS011;42600;54.408;13.016;2023-03-01T09:45:23;12.93;;;5.50;;
419;SDS011;42600;54.408;13.016;2023-03-01T09:47:53;19.33;;;6.13;;
419;SDS011;42600;54.408;13.016;2023-03-01T09:50:22;17.93;;;7.40;;
419;SDS011;42600;54.408;13.016;2023-03-01T09:52:53;13.20;;;5.57;;
419;SDS011;42600;54.408;13.016;2023-03-01T09:55:26;13.53;;;5.03;;
419;SDS011;42600;54.408;13.016;2023-03-01T09:57:58;17.73;;;6.00;;
419;SDS011;42600;54.408;13.016;2023-03-01T10:00:31;24.37;;;8.40;;
419;SDS011;42600;54.408;13.016;2023-03-01T10:03:08;32.93;;;9.30;;
419;SDS011;42600;54.408;13.016;2023-03-01T10:05:43;21.07;;;8.70;;
419;SDS011;42600;54.408;13.016;2023-03-01T10:08:24;23.53;;;9.70;;
419;SDS011;42600;54.408;13.016;2023-03-01T10:10:58;17.50;;;7.10;;
419;SDS011;42600;54.408;13.016;2023-03-01T10:13:26;21.40;;;7.97;;
419;SDS011;42600;54.408;13.016;2023-03-01T10:15:58;30.13;;;7.07;;
419;SDS011;42600;54.408;13.016;2023-03-01T10:18:30;30.37;;;7.53;;
419;SDS011;42600;54.408;13.016;2023-03-01T10:21:05;14.80;;;6.30;;
419;SDS011;42600;54.408;13.016;2023-03-01T10:23:39;32.33;;;10.27;;
419;SDS011;42600;54.408;13.016;2023-03-01T10:26:09;27.70;;;7.50;;
419;SDS011;42600;54.408;13.016;2023-03-01T10:28:50;27.10;;;8.60;;
419;SDS011;42600;54.408;13.016;2023-03-01T10:31:25;32.87;;;8.30;;
419;SDS011;42600;54.408;13.016;2023-03-01T10:33:54;30.83;;;8.40;;
419;SDS011;42600;54.408;13.016;2023-03-01T10:36:25;34.07;;;8.20;;
419;SDS011;42600;54.408;13.016;2023-03-01T10:38:52;18.00;;;6.90;;
419;SDS011;42600;54.408;13.016;2023-03-01T10:41:22;25.03;;;8.00;;
419;SDS011;42600;54.408;13.016;2023-03-01T10:43:50;22.13;;;6.43;;
419;SDS011;42600;54.408;13.016;2023-03-01T10:46:23;19.00;;;8.30;;
419;SDS011;42600;54.408;13.016;2023-03-01T10:51:42;16.03;;;6.30;;
419;SDS011;42600;54.408;13.016;2023-03-01T10:54:15;46.60;;;8.47;;
419;SDS011;42600;54.408;13.016;2023-03-01T10:56:48;34.43;;;9.93;;
419;SDS011;42600;54.408;13.016;2023-03-01T10:59:20;23.53;;;9.30;;
419;SDS011;42600;54.408;13.016;2023-03-01T11:02:14;20.73;;;8.60;;
419;SDS011;42600;54.408;13.016;2023-03-01T11:04:55;31.50;;;10.53;;
419;SDS011;42600;54.408;13.016;2023-03-01T11:07:27;35.73;;;8.93;;
419;SDS011;42600;54.408;13.016;2023-03-01T11:09:55;31.20;;;10.70;;
419;SDS011;42600;54.408;13.016;2023-03-01T11:12:21;24.63;;;9.23;;
419;SDS011;42600;54.408;13.016;2023-03-01T11:14:49;24.80;;;9.53;;
419;SDS011;42600;54.408;13.016;2023-03-01T11:17:18;37.57;;;10.30;;
419;SDS011;42600;54.408;13.016;2023-03-01T11:19:59;27.83;;;7.60;;
419;SDS011;42600;54.408;13.016;2023-03-01T11:22:27;24.07;;;8.57;;
419;SDS011;42600;54.408;13.016;2023-03-01T11:24:54;32.50;;;8.87;;
419;SDS011;42600;54.408;13.016;2023-03-01T11:27:24;21.37;;;6.27;;
419;SDS011;42600;54.408;13.016;2023-03-01T11:29:54;38.30;;;10.57;;
419;SDS011;42600;54.408;13.016;2023-03-01T11:32:24;31.33;;;8.40;;
419;SDS011;42600;54.408;13.016;2023-03-01T11:34:54;25.93;;;9.57;;
419;SDS011;42600;54.408;13.016;2023-03-01T11:37:32;31.47;;;7.90;;
419;SDS011;42600;54.408;13.016;2023-03-01T11:42:50;30.03;;;9.07;;
419;SDS011;42600;54.408;13.016;2023-03-01T11:45:23;23.73;;;7.70;;
419;SDS011;42600;54.408;13.016;2023-03-01T11:47:55;26.00;;;9.20;;
419;SDS011;42600;54.408;13.016;2023-03-01T11:50:35;27.37;;;8.47;;
419;SDS011;42600;54.408;13.016;2023-03-01T11:53:24;37.30;;;10.57;;
419;SDS011;42600;54.408;13.016;2023-03-01T11:56:10;28.13;;;7.63;;
419;SDS011;42600;54.408;13.016;2023-03-01T11:58:54;43.73;;;12.00;;
419;SDS011;42600;54.408;13.016;2023-03-01T12:01:37;34.17;;;8.80;;
419;SDS011;42600;54.408;13.016;2023-03-01T12:04:26;24.10;;;9.53;;
419;SDS011;42600;54.408;13.016;2023-03-01T12:07:17;33.00;;;9.43;;
419;SDS011;42600;54.408;13.016;2023-03-01T12:09:55;23.20;;;8.53;;
419;SDS011;42600;54.408;13.016;2023-03-01T12:12:34;26.60;;;5.80;;
419;SDS011;42600;54.408;13.016;2023-03-01T12:15:32;23.63;;;7.97;;
419;SDS011;42600;54.408;13.016;2023-03-01T12:18:23;32.10;;;9.37;;
419;SDS011;42600;54.408;13.016;2023-03-01T12:21:03;31.60;;;11.03;;
419;SDS011;42600;54.408;13.016;2023-03-01T12:23:44;27.53;;;9.30;;
419;SDS011;42600;54.408;13.016;2023-03-01T12:26:28;47.43;;;11.07;;
419;SDS011;42600;54.408;13.016;2023-03-01T12:29:02;40.70;;;10.63;;
419;SDS011;42600;54.408;13.016;2023-03-01T12:32:04;43.40;;;10.83;;
419;SDS011;42600;54.408;13.016;2023-03-01T12:35:11;36.03;;;10.67;;
419;SDS011;42600;54.408;13.016;2023-03-01T12:37:59;27.57;;;11.30;;
419;SDS011;42600;54.408;13.016;2023-03-01T12:43:47;37.03;;;9.90;;
419;SDS011;42600;54.408;13.016;2023-03-01T12:46:25;24.13;;;8.87;;
419;SDS011;42600;54.408;13.016;2023-03-01T12:49:06;24.63;;;11.07;;
419;SDS011;42600;54.408;13.016;2023-03-01T12:51:38;28.27;;;9.23;;
419;SDS011;42600;54.408;13.016;2023-03-01T12:54:07;37.67;;;10.97;;
419;SDS011;42600;54.408;13.016;2023-03-01T12:56:41;29.40;;;9.03;;
419;SDS011;42600;54.408;13.016;2023-03-01T12:59:12;28.00;;;9.30;;
419;SDS011;42600;54.408;13.016;2023-03-01T13:01:44;31.47;;;10.57;;
419;SDS011;42600;54.408;13.016;2023-03-01T13:04:21;27.30;;;12.00;;
419;SDS011;42600;54.408;13.016;2023-03-01T13:07:00;39.13;;;10.43;;
419;SDS011;42600;54.408;13.016;2023-03-01T13:09:39;32.50;;;10.97;;
419;SDS011;42600;54.408;13.016;2023-03-01T13:15:25;27.43;;;8.27;;
419;SDS011;42600;54.408;13.016;2023-03-01T13:17:54;21.67;;;8.90;;
419;SDS011;42600;54.408;13.016;2023-03-01T13:20:23;39.27;;;12.77;;
419;SDS011;42600;54.408;13.016;2023-03-01T13:22:59;32.63;;;8.83;;
419;SDS011;42600;54.408;13.016;2023-03-01T13:25:28;38.70;;;11.20;;
419;SDS011;42600;54.408;13.016;2023-03-01T13:28:32;27.03;;;8.43;;
419;SDS011;42600;54.408;13.016;2023-03-01T13:31:04;28.97;;;9.40;;
419;SDS011;42600;54.408;13.016;2023-03-01T13:33:39;34.33;;;11.93;;
419;SDS011;42600;54.408;13.016;2023-03-01T13:36:08;24.97;;;8.63;;
419;SDS011;42600;54.408;13.016;2023-03-01T13:38:41;32.77;;;9.13;;
419;SDS011;42600;54.408;13.016;2023-03-01T13:41:12;34.90;;;9.77;;
419;SDS011;42600;54.408;13.016;2023-03-01T13:43:40;35.17;;;11.50;;
419;SDS011;42600;54.408;13.016;2023-03-01T13:46:11;39.77;;;9.70;;
419;SDS011;42600;54.408;13.016;2023-03-01T13:48:42;19.60;;;7.00;;
419;SDS011;42600;54.408;13.016;2023-03-01T13:51:11;34.87;;;11.83;;
419;SDS011;42600;54.408;13.016;2023-03-01T13:53:39;36.00;;;11.67;;
419;SDS011;42600;54.408;13.016;2023-03-01T13:56:09;31.40;;;9.60;;
419;SDS011;42600;54.408;13.016;2023-03-01T13:58:44;28.50;;;9.53;;
419;SDS011;42600;54.408;13.016;2023-03-01T14:01:22;18.77;;;7.13;;
419;SDS011;42600;54.408;13.016;2023-03-01T14:03:50;32.87;;;11.13;;
419;SDS011;42600;54.408;13.016;2023-03-01T14:06:19;24.33;;;10.50;;
419;SDS011;42600;54.408;13.016;2023-03-01T14:08:48;27.93;;;9.67;;
419;SDS011;42600;54.408;13.016;2023-03-01T14:11:35;36.40;;;11.60;;
419;SDS011;42600;54.408;13.016;2023-03-01T14:20:21;33.33;;;11.83;;
419;SDS011;42600;54.408;13.016;2023-03-01T14:22:50;24.57;;;10.40;;
419;SDS011;42600;54.408;13.016;2023-03-01T14:25:23;22.43;;;8.60;;
419;SDS011;42600;54.408;13.016;2023-03-01T14:27:54;29.17;;;8.70;;
419;SDS011;42600;54.408;13.016;2023-03-01T14:30:23;39.33;;;9.80;;
419;SDS011;42600;54.408;13.016;2023-03-01T14:32:53;24.40;;;9.43;;
419;SDS011;42600;54.408;13.016;2023-03-01T14:35:22;26.43;;;9.00;;
419;SDS011;42600;54.408;13.016;2023-03-01T14:37:50;29.30;;;10.47;;
419;SDS011;42600;54.408;13.016;2023-03-01T14:40:21;22.60;;;10.20;;
419;SDS011;42600;54.408;13.016;2023-03-01T14:42:53;40.53;;;11.20;;
419;SDS011;42600;54.408;13.016;2023-03-01T14:45:21;36.13;;;10.07;;
419;SDS011;42600;54.408;13.016;2023-03-01T14:47:50;29.17;;;7.57;;
419;SDS011;42600;54.408;13.016;2023-03-01T14:50:23;34.20;;;10.90;;
419;SDS011;42600;54.408;13.016;2023-03-01T14:52:53;25.03;;;10.37;;
419;SDS011;42600;54.408;13.016;2023-03-01T14:55:23;28.50;;;9.43;;
419;SDS011;42600;54.408;13.016;2023-03-01T14:57:54;35.40;;;11.80;;
419;SDS011;42600;54.408;13.016;2023-03-01T15:00:24;25.50;;;9.37;;
419;SDS011;42600;54.408;13.016;2023-03-01T15:02:53;30.37;;;8.77;;
419;SDS011;42600;54.408;13.016;2023-03-01T15:05:24;26.33;;;10.50;;
419;SDS011;42600;54.408;13.016;2023-03-01T15:07:53;43.77;;;10.10;;
419;SDS011;42600;54.408;13.016;2023-03-01T15:10:21;35.93;;;10.30;;
419;SDS011;42600;54.408;13.016;2023-03-01T15:12:49;19.20;;;7.60;;
419;SDS011;42600;54.408;13.016;2023-03-01T15:15:22;22.67;;;7.30;;
419;SDS011;42600;54.408;13.016;2023-03-01T15:18:05;31.13;;;6.77;;
419;SDS011;42600;54.408;13.016;2023-03-01T15:20:41;22.73;;;8.37;;
419;SDS011;42600;54.408;13.016;2023-03-01T15:23:16;25.60;;;7.80;;
419;SDS011;42600;54.408;13.016;2023-03-01T15:25:49;16.90;;;6.10;;